EDT,Max TemperatureF,Mean TemperatureF,Min TemperatureF,Max Dew PointF,MeanDew PointF,Min DewpointF,Max Humidity, Mean Humidity, Min Humidity, Max Sea Level PressureIn, Mean Sea Level PressureIn, Min Sea Level PressureIn, Max VisibilityMiles, Mean VisibilityMiles, Min VisibilityMiles, Max Wind SpeedMPH, Mean Wind SpeedMPH, Max Gust SpeedMPH,PrecipitationIn, CloudCover, Events, WindDirDegrees
2012-9-1,78,71,64,69,60,55,85,68,57,30.13,30.01,29.85,10,10,9,14,7,21,0.00,0,,46
2012-9-2,72,64,57,61,58,55,96,78,68,30.15,30.12,30.09,10,10,10,7,4,,0.00,4,,94
2012-9-3,73,64,57,61,57,53,100,79,55,30.24,30.20,30.15,10,10,10,10,3,,0.00,1,,111
2012-9-4,73,67,61,68,63,59,96,86,71,30.19,30.05,29.95,10,10,8,14,6,21,0.00,7,,150
2012-9-5,77,72,66,73,70,64,100,94,83,29.94,29.82,29.78,10,5,0,14,8,25,0.44,8,Fog-Rain-Thunderstorm,224
2012-9-6,73,67,62,64,62,60,93,82,68,29.92,29.90,29.84,10,10,10,8,5,,0.00,1,,110
2012-9-7,81,73,66,72,69,64,100,89,71,29.96,29.93,29.89,10,9,2,12,5,17,0.00,5,,211
2012-9-8,79,72,68,72,69,66,100,91,76,29.95,29.84,29.72,10,8,1,16,8,26,0.00,5,,180
2012-9-9,73,65,55,72,62,55,100,91,80,29.84,29.79,29.72,10,9,2,14,5,26,0.24,6,Rain,311
2012-9-10,66,60,55,60,52,46,97,72,49,30.02,29.90,29.83,10,10,10,15,4,23,0.00,3,Rain,325
2012-9-11,68,62,54,51,47,41,90,64,39,30.29,30.19,30.03,10,10,9,8,5,,0.00,0,,312
2012-9-12,77,63,53,59,54,51,93,70,45,30.39,30.35,30.30,10,10,10,9,4,17,0.01,0,,240
2012-9-13,75,68,60,62,59,55,83,73,59,30.40,30.36,30.31,10,10,10,12,6,20,0.00,0,,216
2012-9-14,75,69,63,65,62,60,96,83,64,30.31,30.24,30.13,10,10,10,9,6,17,0.00,2,,215
2012-9-15,73,66,59,66,60,46,94,80,54,30.12,30.03,29.98,10,9,1,9,3,16,0.20,4,Rain-Thunderstorm,251
2012-9-16,69,60,51,52,49,45,93,70,49,30.09,30.05,30.01,10,10,10,7,1,,0.00,1,,309
2012-9-17,73,60,48,55,52,47,97,71,43,30.12,30.09,30.06,10,10,10,9,4,,0.00,0,,242
2012-9-18,73,66,61,64,60,54,90,78,66,30.10,30.01,29.87,10,10,10,15,7,28,0.00,1,,171
2012-9-19,70,65,60,68,61,48,100,84,51,30.17,29.91,29.80,10,6,1,16,8,32,1.14,6,Rain,240
2012-9-20,64,59,54,53,49,47,86,68,54,30.23,30.19,30.17,10,10,10,13,8,21,0.00,0,,45
2012-9-21,63,56,50,61,55,49,100,87,72,30.16,30.09,30.00,10,9,2,12,5,17,0.03,5,Rain,34
2012-9-22,68,64,60,61,60,59,100,93,78,29.98,29.94,29.90,10,6,1,9,6,,0.03,6,,243
2012-9-23,69,60,52,66,57,46,96,79,47,30.09,29.95,29.85,10,10,7,10,6,21,0.00,3,,241
2012-9-24,64,58,51,47,44,38,80,65,38,30.14,30.11,30.09,10,10,10,8,2,,0.00,1,,303
2012-9-25,71,58,46,54,48,41,86,65,45,30.23,30.20,30.16,10,10,10,14,5,26,0.00,0,,233
2012-9-26,73,68,64,64,61,55,88,78,68,30.20,30.12,30.05,10,10,2,15,9,28,0.00,5,Rain,214
2012-9-27,68,60,51,65,57,46,97,78,60,30.25,30.13,30.02,10,9,6,13,6,23,0.00,3,,343
2012-9-28,64,56,48,63,54,45,100,82,62,30.26,30.11,29.95,10,9,2,15,6,29,0.39,6,Rain-Thunderstorm,115
2012-9-29,64,60,57,65,61,55,100,96,90,29.95,29.90,29.87,10,6,0,9,2,17,0.69,8,Fog-Rain-Thunderstorm,297
2012-9-30,63,58,55,58,56,53,100,93,75,29.90,29.79,29.74,10,7,1,14,3,21,1.28,7,Rain,295